Time;durP1;ratioP1;P1;durP2;ratioP2;P2;SDS_P1;SDS_P2;PMS_P1;PMS_P2;Temp;Humidity;BMP_temperature;BMP_pressure;BME280_temperature;BME280_humidity;BME280_pressure;Samples;Min_cycle;Max_cycle;Signal;HPM_P1;HPM_P2
2023/09/05 00:01:39;;;;;;;6.20;4.30;;;;;;;;;;5022697;28;20061;-58
2023/09/05 00:04:06;;;;;;;4.60;3.90;;;;;;;;;;5043716;28;20061;-57
2023/09/05 00:06:35;;;;;;;10.18;4.38;;;;;;;;;;5046564;28;20054;-57
2023/09/05 00:09:02;;;;;;;4.88;4.03;;;;;;;;;;5030949;28;20072;-57
2023/09/05 00:11:28;;;;;;;4.90;4.40;;;;;;;;;;5029829;28;20062;-58
2023/09/05 00:13:54;;;;;;;5.47;4.10;;;;;;;;;;5033929;28;20301;-57
2023/09/05 00:16:21;;;;;;;5.38;3.85;;;;;;;;;;5037685;28;20084;-58
2023/09/05 00:18:48;;;;;;;4.93;3.88;;;;;;;;;;5022488;28;20057;-54
2023/09/05 00:21:18;;;;;;;8.52;4.35;;;;;;;;;;5038683;28;20594;-57
2023/09/05 00:23:45;;;;;;;4.47;3.83;;;;;;;;;;5035245;28;20054;-58
2023/09/05 00:26:12;;;;;;;5.43;3.88;;;;;;;;;;5041203;28;20049;-58
2023/09/05 00:28:39;;;;;;;4.80;4.10;;;;;;;;;;5041611;28;20610;-57
2023/09/05 00:31:05;;;;;;;5.80;4.10;;;;;;;;;;5036652;28;20081;-54
2023/09/05 00:33:31;;;;;;;4.05;3.65;;;;;;;;;;5027157;28;20137;-57
2023/09/05 00:35:58;;;;;;;4.65;4.15;;;;;;;;;;5031964;28;20566;-56
2023/09/05 00:38:24;;;;;;;4.50;3.65;;;;;;;;;;5029658;28;20049;-57
2023/09/05 00:40:51;;;;;;;5.53;4.00;;;;;;;;;;5025848;28;20500;-58
2023/09/05 00:43:20;;;;;;;7.32;3.70;;;;;;;;;;5039604;28;20740;-56
2023/09/05 00:45:56;;;;;;;7.80;4.07;;;;;;;;;;5039367;28;20470;-57
2023/09/05 00:48:27;;;;;;;6.35;4.32;;;;;;;;;;5039225;28;20053;-57
2023/09/05 00:50:56;;;;;;;5.18;4.28;;;;;;;;;;5032569;28;20683;-58
2023/09/05 00:53:26;;;;;;;5.07;4.07;;;;;;;;;;5025086;28;20099;-57
2023/09/05 00:55:53;;;;;;;5.65;4.20;;;;;;;;;;5041912;28;20143;-58
2023/09/05 00:58:20;;;;;;;5.43;4.53;;;;;;;;;;5034654;28;20084;-57
2023/09/05 01:00:46;;;;;;;5.15;4.13;;;;;;;;;;5027520;28;20054;-57
2023/09/05 01:03:12;;;;;;;5.60;4.35;;;;;;;;;;5032792;28;20108;-53
2023/09/05 01:05:41;;;;;;;5.97;4.47;;;;;;;;;;5028350;28;20050;-56
2023/09/05 01:08:25;;;;;;;5.30;4.28;;;;;;;;;;5034295;28;20049;-58
2023/09/05 01:10:52;;;;;;;6.65;4.28;;;;;;;;;;5034064;28;20135;-58
2023/09/05 01:13:25;;;;;;;6.55;4.30;;;;;;;;;;5042090;28;20057;-59
2023/09/05 01:15:53;;;;;;;5.20;4.20;;;;;;;;;;5044716;28;20058;-56
2023/09/05 01:18:20;;;;;;;5.28;4.00;;;;;;;;;;5028211;28;20626;-55
2023/09/05 01:21:05;;;;;;;5.97;4.45;;;;;;;;;;5033141;28;20046;-58
2023/09/05 01:23:37;;;;;;;7.05;3.95;;;;;;;;;;5035840;28;20563;-58
2023/09/05 01:26:04;;;;;;;6.10;4.40;;;;;;;;;;5043520;28;20050;-58
2023/09/05 01:28:35;;;;;;;14.30;5.70;;;;;;;;;;5040252;28;20056;-58
2023/09/05 01:31:01;;;;;;;7.28;4.70;;;;;;;;;;5032718;28;20085;-57
2023/09/05 01:33:28;;;;;;;6.40;4.15;;;;;;;;;;5027685;28;20061;-57
2023/09/05 01:35:54;;;;;;;4.90;4.43;;;;;;;;;;5034330;28;20509;-57
2023/09/05 01:38:21;;;;;;;4.85;4.22;;;;;;;;;;5044802;28;20053;-57
2023/09/05 01:40:47;;;;;;;4.10;3.70;;;;;;;;;;5038051;28;20547;-58
2023/09/05 01:43:16;;;;;;;7.00;4.57;;;;;;;;;;5041730;28;20053;-59
2023/09/05 01:45:42;;;;;;;6.15;4.40;;;;;;;;;;5042659;28;20136;-56
2023/09/05 01:48:09;;;;;;;6.78;3.95;;;;;;;;;;5028104;28;20523;-57
2023/09/05 01:50:35;;;;;;;5.25;4.45;;;;;;;;;;5034329;28;20107;-55
2023/09/05 01:53:01;;;;;;;5.00;3.90;;;;;;;;;;5044531;28;20049;-56
2023/09/05 01:55:28;;;;;;;6.25;4.20;;;;;;;;;;5039609;28;20498;-57
2023/09/05 01:57:54;;;;;;;4.47;3.97;;;;;;;;;;5043020;28;20863;-54
2023/09/05 02:00:21;;;;;;;6.30;4.47;;;;;;;;;;5033291;28;20080;-58
2023/09/05 02:02:47;;;;;;;6.00;4.28;;;;;;;;;;5043282;28;20058;-58
2023/09/05 02:05:14;;;;;;;5.95;4.70;;;;;;;;;;5043501;28;20499;-58
2023/09/05 02:07:40;;;;;;;4.97;3.75;;;;;;;;;;5043772;28;20500;-60
2023/09/05 02:10:07;;;;;;;4.38;3.75;;;;;;;;;;5039688;28;20057;-54
2023/09/05 02:12:35;;;;;;;5.43;4.38;;;;;;;;;;5025512;28;20054;-58
2023/09/05 02:15:03;;;;;;;6.60;4.00;;;;;;;;;;5037307;28;20053;-56
2023/09/05 02:17:31;;;;;;;4.03;3.50;;;;;;;;;;5034579;28;20058;-54
2023/09/05 02:19:58;;;;;;;4.93;4.25;;;;;;;;;;5026744;28;20058;-55
2023/09/05 02:22:24;;;;;;;5.25;4.57;;;;;;;;;;5043171;28;20140;-58
2023/09/05 02:24:51;;;;;;;6.82;4.00;;;;;;;;;;5042498;28;20068;-57
2023/09/05 02:27:17;;;;;;;4.43;3.75;;;;;;;;;;5040542;28;20053;-57
2023/09/05 02:29:51;;;;;;;5.13;4.03;;;;;;;;;;5028981;28;20053;-57
2023/09/05 02:32:17;;;;;;;6.20;4.18;;;;;;;;;;5030938;28;20050;-57
2023/09/05 02:34:49;;;;;;;5.53;4.10;;;;;;;;;;5045135;28;20105;-58
2023/09/05 02:37:16;;;;;;;7.82;4.50;;;;;;;;;;5037906;28;20404;-56
2023/09/05 02:39:43;;;;;;;6.57;4.63;;;;;;;;;;5042863;28;20046;-54
2023/09/05 02:42:09;;;;;;;5.60;4.53;;;;;;;;;;5043768;28;20049;-59
2023/09/05 02:44:36;;;;;;;9.20;4.47;;;;;;;;;;5042335;28;20054;-57
2023/09/05 02:47:02;;;;;;;6.22;4.65;;;;;;;;;;5043685;28;20530;-57
2023/09/05 02:49:30;;;;;;;7.20;5.00;;;;;;;;;;5036426;28;20782;-57
2023/09/05 02:51:56;;;;;;;5.53;4.07;;;;;;;;;;5027767;28;20050;-55
2023/09/05 02:54:23;;;;;;;11.18;5.00;;;;;;;;;;5024478;28;20144;-57
2023/09/05 02:56:49;;;;;;;6.38;4.18;;;;;;;;;;5036916;28;20077;-57
2023/09/05 02:59:16;;;;;;;7.60;4.57;;;;;;;;;;5035196;28;20076;-54
2023/09/05 03:01:42;;;;;;;7.43;4.05;;;;;;;;;;5032500;28;20519;-57
2023/09/05 03:04:09;;;;;;;7.18;4.80;;;;;;;;;;5032628;28;20054;-57
2023/09/05 03:06:35;;;;;;;6.68;5.13;;;;;;;;;;5042090;28;20060;-56
2023/09/05 03:09:03;;;;;;;6.10;5.03;;;;;;;;;;5044330;28;20049;-58
2023/09/05 03:11:29;;;;;;;6.28;4.90;;;;;;;;;;5043108;28;20055;-57
2023/09/05 03:13:56;;;;;;;5.57;3.97;;;;;;;;;;5031931;28;20064;-58
2023/09/05 03:16:23;;;;;;;6.70;4.80;;;;;;;;;;5035963;28;20855;-57
2023/09/05 03:18:50;;;;;;;5.82;4.30;;;;;;;;;;5032759;28;20056;-58
2023/09/05 03:21:17;;;;;;;8.90;5.05;;;;;;;;;;5037599;28;20084;-58
2023/09/05 03:23:43;;;;;;;7.22;4.45;;;;;;;;;;5046984;28;20054;-57
2023/09/05 03:26:10;;;;;;;4.45;4.05;;;;;;;;;;5034824;28;20076;-58
2023/09/05 03:28:40;;;;;;;5.60;4.85;;;;;;;;;;5036652;28;20544;-59
2023/09/05 03:31:07;;;;;;;5.15;4.35;;;;;;;;;;5046104;28;20084;-58
2023/09/05 03:33:33;;;;;;;6.95;4.25;;;;;;;;;;5041043;28;20471;-59
2023/09/05 03:36:00;;;;;;;5.80;4.07;;;;;;;;;;5036802;28;22231;-57
2023/09/05 03:38:27;;;;;;;5.35;4.85;;;;;;;;;;5024406;28;20060;-58
2023/09/05 03:40:54;;;;;;;7.07;4.43;;;;;;;;;;5038126;28;20519;-58
2023/09/05 03:43:20;;;;;;;8.02;4.30;;;;;;;;;;5042256;28;20101;-58
2023/09/05 03:45:48;;;;;;;5.15;4.57;;;;;;;;;;5039948;28;20049;-57
2023/09/05 03:48:14;;;;;;;4.88;4.07;;;;;;;;;;5049590;28;20099;-58
2023/09/05 03:50:41;;;;;;;6.78;4.97;;;;;;;;;;5029317;28;20524;-57
2023/09/05 03:53:07;;;;;;;5.15;4.53;;;;;;;;;;5030679;28;20587;-58
2023/09/05 03:55:34;;;;;;;5.60;4.50;;;;;;;;;;5043061;28;20054;-58
2023/09/05 03:58:02;;;;;;;5.03;4.53;;;;;;;;;;5043437;28;20174;-57
2023/09/05 04:00:29;;;;;;;7.00;4.32;;;;;;;;;;5040686;28;20069;-55
2023/09/05 04:02:56;;;;;;;5.93;4.53;;;;;;;;;;5040704;28;20060;-59
2023/09/05 04:05:24;;;;;;;16.58;4.82;;;;;;;;;;5041374;28;20053;-55
2023/09/05 04:07:50;;;;;;;4.90;4.38;;;;;;;;;;5041210;28;20124;-57
2023/09/05 04:10:16;;;;;;;4.47;3.83;;;;;;;;;;5041868;28;20061;-57
2023/09/05 04:12:43;;;;;;;5.03;4.30;;;;;;;;;;5042650;28;20111;-55
2023/09/05 04:15:09;;;;;;;5.35;4.25;;;;;;;;;;5041955;28;20053;-58
2023/09/05 04:17:37;;;;;;;7.88;4.88;;;;;;;;;;5037554;28;20053;-57
2023/09/05 04:20:07;;;;;;;4.63;4.22;;;;;;;;;;5041974;28;20081;-58
2023/09/05 04:22:33;;;;;;;9.82;4.95;;;;;;;;;;5043033;28;20145;-57
2023/09/05 04:25:00;;;;;;;5.63;4.45;;;;;;;;;;5040758;28;20531;-57
2023/09/05 04:27:27;;;;;;;6.63;4.38;;;;;;;;;;5042046;28;20512;-57
2023/09/05 04:29:56;;;;;;;5.88;4.07;;;;;;;;;;5025882;28;20057;-55
2023/09/05 04:32:31;;;;;;;5.47;4.57;;;;;;;;;;5042361;28;20931;-57
2023/09/05 04:34:58;;;;;;;6.55;5.25;;;;;;;;;;5040835;28;20061;-54
2023/09/05 04:37:25;;;;;;;5.00;4.15;;;;;;;;;;5031994;28;20483;-56
2023/09/05 04:39:52;;;;;;;4.68;4.13;;;;;;;;;;5027068;28;20053;-57
2023/09/05 04:42:18;;;;;;;6.85;4.45;;;;;;;;;;5059975;28;20060;-57
2023/09/05 04:44:45;;;;;;;5.47;4.25;;;;;;;;;;5035030;28;20050;-55
2023/09/05 04:47:25;;;;;;;5.13;4.15;;;;;;;;;;5042141;28;20056;-55
2023/09/05 04:50:00;;;;;;;12.05;4.35;;;;;;;;;;5040973;28;20057;-57
2023/09/05 04:52:27;;;;;;;5.28;4.35;;;;;;;;;;5027359;28;20045;-59
2023/09/05 04:54:55;;;;;;;4.57;3.92;;;;;;;;;;5034467;28;20060;-56
2023/09/05 04:57:21;;;;;;;6.90;4.03;;;;;;;;;;5041637;28;20072;-58
2023/09/05 04:59:48;;;;;;;5.13;3.90;;;;;;;;;;5045025;28;20053;-58
2023/09/05 05:02:15;;;;;;;5.45;3.78;;;;;;;;;;5044420;28;20050;-58
2023/09/05 05:04:42;;;;;;;6.18;4.70;;;;;;;;;;5045154;28;20986;-57
2023/09/05 05:07:09;;;;;;;7.20;4.47;;;;;;;;;;5033848;28;20050;-56
2023/09/05 05:09:35;;;;;;;4.50;3.60;;;;;;;;;;5037919;28;20132;-55
2023/09/05 05:12:02;;;;;;;5.00;3.95;;;;;;;;;;5038993;28;20145;-57
2023/09/05 05:14:28;;;;;;;4.38;3.70;;;;;;;;;;5044057;28;20778;-57
2023/09/05 05:16:55;;;;;;;3.88;3.47;;;;;;;;;;5038934;28;20489;-58
2023/09/05 05:19:21;;;;;;;5.68;3.38;;;;;;;;;;5040766;28;20625;-59
2023/09/05 05:21:48;;;;;;;5.35;3.78;;;;;;;;;;5043755;28;20057;-54
2023/09/05 05:24:15;;;;;;;5.53;3.97;;;;;;;;;;5043493;28;20045;-59
2023/09/05 05:26:41;;;;;;;4.10;3.47;;;;;;;;;;5043084;28;20617;-56
2023/09/05 05:29:08;;;;;;;9.07;3.95;;;;;;;;;;5029022;28;20515;-59
2023/09/05 05:31:35;;;;;;;7.15;3.88;;;;;;;;;;5037609;28;20468;-55
2023/09/05 05:34:02;;;;;;;4.55;3.30;;;;;;;;;;5044601;28;20594;-58
2023/09/05 05:36:29;;;;;;;5.03;3.65;;;;;;;;;;5044055;28;20049;-58
2023/09/05 05:38:56;;;;;;;4.97;3.60;;;;;;;;;;5045005;28;20417;-54
2023/09/05 05:41:23;;;;;;;6.63;3.42;;;;;;;;;;5042131;28;20054;-58
2023/09/05 05:43:49;;;;;;;4.53;3.50;;;;;;;;;;5050061;28;20049;-58
2023/09/05 05:46:18;;;;;;;4.43;3.47;;;;;;;;;;5044457;28;20081;-56
2023/09/05 05:48:45;;;;;;;4.60;3.40;;;;;;;;;;5042996;28;20053;-59
2023/09/05 05:51:11;;;;;;;4.65;3.42;;;;;;;;;;5044546;28;20508;-58
2023/09/05 05:53:38;;;;;;;5.30;3.22;;;;;;;;;;5036212;28;20141;-55
2023/09/05 05:56:04;;;;;;;3.83;3.17;;;;;;;;;;5040832;28;20080;-56
2023/09/05 05:58:31;;;;;;;5.63;3.70;;;;;;;;;;5048457;28;20107;-61
2023/09/05 06:00:58;;;;;;;5.38;3.20;;;;;;;;;;5038759;28;20073;-59
2023/09/05 06:03:24;;;;;;;6.97;4.28;;;;;;;;;;5042514;28;20038;-59
2023/09/05 06:05:51;;;;;;;6.95;3.13;;;;;;;;;;5043335;28;20477;-58
2023/09/05 06:08:17;;;;;;;7.40;3.47;;;;;;;;;;5043990;28;20554;-58
2023/09/05 06:10:44;;;;;;;7.78;4.03;;;;;;;;;;5044083;28;20050;-56
2023/09/05 06:13:11;;;;;;;4.82;3.20;;;;;;;;;;5042843;28;20096;-60
2023/09/05 06:15:38;;;;;;;7.07;3.10;;;;;;;;;;5043871;28;20067;-58
2023/09/05 06:18:05;;;;;;;6.63;3.35;;;;;;;;;;5029850;28;20520;-56
2023/09/05 06:20:35;;;;;;;4.82;3.78;;;;;;;;;;5044237;28;20084;-60
2023/09/05 06:23:02;;;;;;;7.75;3.58;;;;;;;;;;5044172;28;20164;-60
2023/09/05 06:25:28;;;;;;;5.68;3.53;;;;;;;;;;5043045;28;20582;-57
2023/09/05 06:27:55;;;;;;;6.18;3.45;;;;;;;;;;5042254;28;20720;-61
2023/09/05 06:30:22;;;;;;;7.50;4.28;;;;;;;;;;5042231;28;20441;-60
2023/09/05 06:32:49;;;;;;;6.65;3.92;;;;;;;;;;5044523;28;20459;-61
2023/09/05 06:35:15;;;;;;;5.00;3.30;;;;;;;;;;5049602;28;20081;-59
2023/09/05 06:37:42;;;;;;;8.48;3.10;;;;;;;;;;5034572;28;20141;-58
2023/09/05 06:40:12;;;;;;;4.30;3.45;;;;;;;;;;5042045;28;20057;-60
2023/09/05 06:42:42;;;;;;;6.45;3.83;;;;;;;;;;5044716;28;20054;-61
2023/09/05 06:45:09;;;;;;;4.97;3.63;;;;;;;;;;5036005;28;20049;-61
2023/09/05 06:47:35;;;;;;;6.53;3.60;;;;;;;;;;5042370;28;20115;-57
2023/09/05 06:50:04;;;;;;;9.18;4.00;;;;;;;;;;5043188;28;20057;-58
2023/09/05 06:52:32;;;;;;;10.90;3.60;;;;;;;;;;5043496;28;20049;-60
2023/09/05 06:54:58;;;;;;;4.65;3.50;;;;;;;;;;5042747;28;20583;-60
2023/09/05 06:57:26;;;;;;;5.68;3.53;;;;;;;;;;5041685;28;20061;-60
2023/09/05 06:59:52;;;;;;;4.00;3.42;;;;;;;;;;5041665;28;20057;-57
2023/09/05 07:02:19;;;;;;;6.43;3.55;;;;;;;;;;5043159;28;20131;-58
2023/09/05 07:04:46;;;;;;;5.50;3.40;;;;;;;;;;5043806;28;20140;-59
2023/09/05 07:07:12;;;;;;;6.10;3.53;;;;;;;;;;5041545;28;20942;-60
2023/09/05 07:09:39;;;;;;;5.93;3.30;;;;;;;;;;5043076;28;20127;-60
2023/09/05 07:12:06;;;;;;;4.28;3.08;;;;;;;;;;5042741;28;20057;-57
2023/09/05 07:14:33;;;;;;;6.40;3.80;;;;;;;;;;5042096;28;20060;-59
2023/09/05 07:16:59;;;;;;;4.93;3.22;;;;;;;;;;5044122;28;20427;-58
2023/09/05 07:19:26;;;;;;;6.55;3.28;;;;;;;;;;5042481;28;20053;-59
2023/09/05 07:21:53;;;;;;;5.15;2.97;;;;;;;;;;5042794;28;20213;-59
2023/09/05 07:24:19;;;;;;;6.50;3.30;;;;;;;;;;5043025;28;20085;-55
2023/09/05 07:26:46;;;;;;;5.55;3.22;;;;;;;;;;5043143;28;20112;-58
2023/09/05 07:29:13;;;;;;;5.45;2.90;;;;;;;;;;5032951;28;20061;-59
2023/09/05 07:31:39;;;;;;;6.50;2.92;;;;;;;;;;5035444;28;20053;-59
2023/09/05 07:34:06;;;;;;;7.20;3.10;;;;;;;;;;5042018;28;20501;-57
2023/09/05 07:36:34;;;;;;;10.70;3.47;;;;;;;;;;5043461;28;20285;-59
2023/09/05 07:39:03;;;;;;;8.65;2.95;;;;;;;;;;5027583;28;20136;-57
2023/09/05 07:41:30;;;;;;;6.60;2.53;;;;;;;;;;5026433;28;20057;-60
2023/09/05 07:43:56;;;;;;;6.10;2.75;;;;;;;;;;5030727;28;20200;-58
2023/09/05 07:46:23;;;;;;;5.68;3.20;;;;;;;;;;5050552;28;20159;-58
2023/09/05 07:48:49;;;;;;;4.00;2.75;;;;;;;;;;5030855;28;20149;-60
2023/09/05 07:51:22;;;;;;;5.15;2.67;;;;;;;;;;5034710;28;20049;-57
2023/09/05 07:54:01;;;;;;;3.83;2.75;;;;;;;;;;5042850;28;20111;-60
2023/09/05 07:56:29;;;;;;;3.55;2.53;;;;;;;;;;5040560;28;20055;-57
2023/09/05 07:58:56;;;;;;;5.40;2.38;;;;;;;;;;5041082;28;20057;-61
2023/09/05 08:01:23;;;;;;;3.65;2.38;;;;;;;;;;5041084;28;20057;-55
2023/09/05 08:03:50;;;;;;;4.00;2.47;;;;;;;;;;5032496;28;20053;-58
2023/09/05 08:06:17;;;;;;;3.38;2.38;;;;;;;;;;5036773;28;20064;-58
2023/09/05 08:08:43;;;;;;;4.70;2.38;;;;;;;;;;5040085;28;20056;-58
2023/09/05 08:11:10;;;;;;;4.85;2.20;;;;;;;;;;5038820;28;20590;-61
2023/09/05 08:13:36;;;;;;;4.97;2.72;;;;;;;;;;5029782;28;20132;-56
2023/09/05 08:16:03;;;;;;;2.58;1.90;;;;;;;;;;5028743;28;20065;-60
2023/09/05 08:18:30;;;;;;;4.97;2.22;;;;;;;;;;5030424;28;20069;-56
2023/09/05 08:20:57;;;;;;;3.00;2.25;;;;;;;;;;5035015;28;20074;-58
2023/09/05 08:23:24;;;;;;;2.80;2.05;;;;;;;;;;5034281;28;20470;-57
2023/09/05 08:25:51;;;;;;;3.30;1.98;;;;;;;;;;5041292;28;20049;-57
2023/09/05 08:28:21;;;;;;;3.85;2.47;;;;;;;;;;5032181;28;20993;-57
2023/09/05 08:30:47;;;;;;;4.00;2.33;;;;;;;;;;5025170;28;20627;-59
2023/09/05 08:33:14;;;;;;;6.78;2.00;;;;;;;;;;5039315;28;20081;-60
2023/09/05 08:35:41;;;;;;;3.80;1.95;;;;;;;;;;5040149;28;20149;-59
2023/09/05 08:38:07;;;;;;;4.25;2.10;;;;;;;;;;5040082;28;20162;-57
2023/09/05 08:40:34;;;;;;;3.95;2.17;;;;;;;;;;5032518;28;20060;-58
2023/09/05 08:43:01;;;;;;;2.33;1.90;;;;;;;;;;5032996;28;20161;-59
2023/09/05 08:45:29;;;;;;;4.60;2.00;;;;;;;;;;5046338;28;20136;-61
2023/09/05 08:47:56;;;;;;;7.45;2.33;;;;;;;;;;5045616;28;20061;-59
2023/09/05 08:50:26;;;;;;;2.45;2.05;;;;;;;;;;5041521;28;20056;-60
2023/09/05 08:52:53;;;;;;;2.60;2.13;;;;;;;;;;5029980;28;20116;-59
2023/09/05 08:55:21;;;;;;;4.03;2.00;;;;;;;;;;5039961;28;20448;-59
2023/09/05 08:57:49;;;;;;;3.40;2.20;;;;;;;;;;5042209;28;20057;-57
2023/09/05 09:00:19;;;;;;;3.20;1.95;;;;;;;;;;5045532;28;20132;-58
2023/09/05 09:02:45;;;;;;;3.03;1.80;;;;;;;;;;5033885;28;20517;-58
2023/09/05 09:05:12;;;;;;;2.75;1.90;;;;;;;;;;5038160;28;20055;-56
2023/09/05 09:07:38;;;;;;;2.95;2.03;;;;;;;;;;5040457;28;20057;-60
2023/09/05 09:10:18;;;;;;;3.60;2.33;;;;;;;;;;5044656;28;20049;-59
2023/09/05 09:12:44;;;;;;;4.65;2.53;;;;;;;;;;5039620;28;20058;-60
2023/09/05 09:15:11;;;;;;;4.85;1.98;;;;;;;;;;5049912;28;20527;-60
2023/09/05 09:17:41;;;;;;;3.95;2.58;;;;;;;;;;5048044;28;20495;-59
2023/09/05 09:20:12;;;;;;;3.30;1.95;;;;;;;;;;5044063;28;20128;-58
2023/09/05 09:22:39;;;;;;;3.50;2.22;;;;;;;;;;5038420;28;20056;-60
2023/09/05 09:25:14;;;;;;;6.82;2.78;;;;;;;;;;5044480;28;20541;-59
2023/09/05 09:27:42;;;;;;;4.93;2.17;;;;;;;;;;5045099;28;20053;-60
2023/09/05 09:30:09;;;;;;;2.33;2.13;;;;;;;;;;5042341;28;20133;-60
2023/09/05 09:32:38;;;;;;;4.28;2.17;;;;;;;;;;5039374;28;20133;-58
2023/09/05 09:35:10;;;;;;;3.40;2.03;;;;;;;;;;5038102;28;20067;-56
2023/09/05 09:37:36;;;;;;;3.30;2.33;;;;;;;;;;5034069;28;20050;-60
2023/09/05 09:40:06;;;;;;;4.63;2.45;;;;;;;;;;5031452;28;20436;-58
2023/09/05 09:42:34;;;;;;;2.55;2.20;;;;;;;;;;5033328;28;20088;-58
2023/09/05 09:45:04;;;;;;;2.67;2.35;;;;;;;;;;5031424;28;20056;-58
2023/09/05 09:47:31;;;;;;;5.70;2.30;;;;;;;;;;5038581;28;20108;-59
2023/09/05 09:49:58;;;;;;;4.15;2.08;;;;;;;;;;5027418;28;20144;-58
2023/09/05 09:52:24;;;;;;;2.55;1.85;;;;;;;;;;5038698;28;20512;-58
2023/09/05 09:54:55;;;;;;;2.50;2.00;;;;;;;;;;5036802;28;20058;-59
2023/09/05 09:57:28;;;;;;;4.53;3.03;;;;;;;;;;5040848;28;20549;-57
2023/09/05 10:00:15;;;;;;;6.32;2.58;;;;;;;;;;5037771;28;20507;-57
2023/09/05 10:02:43;;;;;;;4.20;2.55;;;;;;;;;;5032948;28;20057;-59
2023/09/05 10:05:11;;;;;;;7.63;2.58;;;;;;;;;;5030440;28;20335;-59
2023/09/05 10:07:38;;;;;;;3.90;2.35;;;;;;;;;;5035532;28;20468;-59
2023/09/05 10:10:06;;;;;;;4.90;2.33;;;;;;;;;;5043917;28;20115;-57
2023/09/05 10:12:35;;;;;;;4.57;2.58;;;;;;;;;;5032305;28;20082;-59
2023/09/05 10:15:03;;;;;;;6.78;2.60;;;;;;;;;;5026600;28;20054;-59
2023/09/05 10:17:30;;;;;;;5.75;2.08;;;;;;;;;;5034840;28;20057;-59
2023/09/05 10:19:57;;;;;;;4.03;2.53;;;;;;;;;;5037473;28;20080;-59
2023/09/05 10:22:24;;;;;;;10.95;2.45;;;;;;;;;;5033359;28;20070;-58
2023/09/05 10:24:50;;;;;;;5.97;2.22;;;;;;;;;;5047747;28;20053;-59
2023/09/05 10:27:17;;;;;;;2.22;1.92;;;;;;;;;;5049095;28;20148;-59
2023/09/05 10:29:47;;;;;;;5.38;2.85;;;;;;;;;;5038056;28;20053;-60
2023/09/05 10:32:23;;;;;;;3.88;2.05;;;;;;;;;;5026121;28;20054;-59
2023/09/05 10:35:01;;;;;;;6.15;2.08;;;;;;;;;;5029221;28;20065;-56
2023/09/05 10:37:38;;;;;;;4.28;2.38;;;;;;;;;;5036430;28;20638;-58
2023/09/05 10:40:07;;;;;;;4.70;2.25;;;;;;;;;;5038880;28;20566;-56
2023/09/05 10:42:36;;;;;;;5.45;2.42;;;;;;;;;;5043768;28;20163;-57
2023/09/05 10:45:28;;;;;;;2.15;1.90;;;;;;;;;;5043537;28;20594;-58
2023/09/05 10:48:17;;;;;;;4.22;2.25;;;;;;;;;;5040887;28;20115;-56
2023/09/05 10:51:02;;;;;;;5.68;2.55;;;;;;;;;;5042949;28;20050;-57
2023/09/05 10:53:28;;;;;;;3.88;1.98;;;;;;;;;;5044165;28;20621;-59
2023/09/05 10:55:57;;;;;;;4.20;2.70;;;;;;;;;;5030176;28;20049;-59
2023/09/05 10:58:32;;;;;;;5.65;2.63;;;;;;;;;;5040303;28;20054;-58
2023/09/05 11:01:00;;;;;;;10.93;2.17;;;;;;;;;;5042647;28;20641;-58
2023/09/05 11:03:36;;;;;;;9.40;2.50;;;;;;;;;;5032007;28;20058;-60
2023/09/05 11:06:11;;;;;;;3.83;2.80;;;;;;;;;;5043251;28;20046;-57
2023/09/05 11:08:38;;;;;;;2.97;2.40;;;;;;;;;;5039761;28;20060;-59
2023/09/05 11:11:04;;;;;;;3.65;2.47;;;;;;;;;;5041959;28;20054;-58
2023/09/05 11:13:31;;;;;;;3.08;2.15;;;;;;;;;;5043627;28;20077;-58
2023/09/05 11:15:58;;;;;;;6.63;2.00;;;;;;;;;;5041431;28;20054;-57
2023/09/05 11:18:25;;;;;;;2.63;2.00;;;;;;;;;;5032120;28;20576;-57
2023/09/05 11:20:51;;;;;;;4.07;2.40;;;;;;;;;;5040643;28;20097;-55
2023/09/05 11:23:20;;;;;;;6.60;2.25;;;;;;;;;;5029703;28;20060;-57
2023/09/05 11:25:48;;;;;;;4.05;2.38;;;;;;;;;;5034784;28;20064;-57
2023/09/05 11:28:15;;;;;;;5.20;2.38;;;;;;;;;;5041685;28;20085;-61
2023/09/05 11:30:42;;;;;;;3.42;2.20;;;;;;;;;;5033412;28;20077;-57
2023/09/05 11:33:09;;;;;;;4.30;2.15;;;;;;;;;;5035550;28;20060;-55
2023/09/05 11:35:38;;;;;;;2.50;1.83;;;;;;;;;;5043243;28;20061;-56
2023/09/05 11:38:04;;;;;;;3.42;1.92;;;;;;;;;;5040184;28;20140;-57
2023/09/05 11:40:30;;;;;;;4.40;2.03;;;;;;;;;;5040623;28;20092;-57
2023/09/05 11:43:03;;;;;;;4.40;2.10;;;;;;;;;;5034294;28;20132;-56
2023/09/05 11:45:30;;;;;;;3.28;2.05;;;;;;;;;;5028446;28;20551;-56
2023/09/05 11:47:57;;;;;;;2.72;2.10;;;;;;;;;;5029458;28;20064;-58
2023/09/05 11:50:24;;;;;;;5.47;1.73;;;;;;;;;;5036629;28;20053;-58
2023/09/05 11:52:51;;;;;;;5.93;2.33;;;;;;;;;;5043278;28;20049;-57
2023/09/05 11:55:21;;;;;;;2.47;1.90;;;;;;;;;;5042367;28;20064;-59
2023/09/05 11:57:50;;;;;;;3.25;2.08;;;;;;;;;;5052006;28;20111;-59
2023/09/05 12:00:17;;;;;;;3.08;1.70;;;;;;;;;;5041363;28;20065;-59
2023/09/05 12:02:44;;;;;;;5.75;2.05;;;;;;;;;;5034656;28;20304;-55
2023/09/05 12:05:11;;;;;;;2.67;1.75;;;;;;;;;;5042214;28;20046;-57
2023/09/05 12:07:38;;;;;;;4.28;1.95;;;;;;;;;;5041875;28;20053;-55
2023/09/05 12:10:05;;;;;;;4.38;1.70;;;;;;;;;;5042451;28;20064;-53
2023/09/05 12:12:31;;;;;;;2.42;2.10;;;;;;;;;;5042611;28;20504;-58
2023/09/05 12:14:58;;;;;;;3.35;1.80;;;;;;;;;;5042509;28;20060;-57
2023/09/05 12:17:25;;;;;;;7.00;1.80;;;;;;;;;;5039270;28;20157;-57
2023/09/05 12:19:53;;;;;;;5.10;2.08;;;;;;;;;;5028308;28;20077;-58
2023/09/05 12:22:23;;;;;;;10.02;2.20;;;;;;;;;;5025928;28;20065;-57
2023/09/05 12:25:08;;;;;;;4.28;2.25;;;;;;;;;;5029881;28;20050;-57
2023/09/05 12:27:38;;;;;;;2.70;1.73;;;;;;;;;;5033347;28;20167;-58
2023/09/05 12:30:06;;;;;;;4.45;1.90;;;;;;;;;;5038223;28;20127;-56
2023/09/05 12:32:34;;;;;;;5.63;2.20;;;;;;;;;;5040545;28;22092;-57
2023/09/05 12:35:01;;;;;;;4.15;1.90;;;;;;;;;;5035451;28;20931;-58
2023/09/05 12:37:27;;;;;;;2.17;1.42;;;;;;;;;;5030672;28;20628;-57
2023/09/05 12:39:57;;;;;;;1.63;1.52;;;;;;;;;;5031411;28;20488;-57
2023/09/05 12:42:25;;;;;;;2.83;1.70;;;;;;;;;;5040858;28;20127;-57
2023/09/05 12:44:52;;;;;;;2.92;2.10;;;;;;;;;;5042238;28;20049;-57
2023/09/05 12:47:19;;;;;;;3.30;1.67;;;;;;;;;;5039818;28;20119;-58
2023/09/05 12:49:47;;;;;;;2.95;1.85;;;;;;;;;;5033042;28;20113;-58
2023/09/05 12:52:33;;;;;;;3.50;2.65;;;;;;;;;;5028561;28;20050;-58
2023/09/05 12:55:00;;;;;;;2.95;1.90;;;;;;;;;;5031066;28;20145;-59
2023/09/05 12:57:27;;;;;;;2.45;1.73;;;;;;;;;;5045417;28;20136;-55
2023/09/05 12:59:54;;;;;;;5.53;2.30;;;;;;;;;;5036916;28;21236;-56
2023/09/05 13:02:21;;;;;;;4.75;1.80;;;;;;;;;;5030238;28;20140;-57
2023/09/05 13:04:47;;;;;;;2.42;1.85;;;;;;;;;;5041562;28;20054;-57
2023/09/05 13:07:14;;;;;;;6.13;2.08;;;;;;;;;;5041481;28;20145;-58
2023/09/05 13:09:40;;;;;;;4.35;1.73;;;;;;;;;;5042683;28;20050;-57
2023/09/05 13:12:07;;;;;;;2.00;1.60;;;;;;;;;;5040915;28;20171;-55
2023/09/05 13:14:35;;;;;;;3.97;2.00;;;;;;;;;;5060885;28;20532;-56
2023/09/05 13:17:02;;;;;;;3.53;1.92;;;;;;;;;;5044850;28;20140;-56
2023/09/05 13:19:28;;;;;;;4.03;1.70;;;;;;;;;;5039407;28;20069;-57
2023/09/05 13:21:55;;;;;;;4.10;1.50;;;;;;;;;;5028626;28;20057;-57
2023/09/05 13:24:23;;;;;;;4.93;1.90;;;;;;;;;;5046477;28;20057;-58
2023/09/05 13:26:49;;;;;;;4.30;1.83;;;;;;;;;;5044802;28;20053;-58
2023/09/05 13:29:15;;;;;;;6.78;1.95;;;;;;;;;;5045573;28;20152;-57
2023/09/05 13:31:42;;;;;;;4.13;1.80;;;;;;;;;;5045897;28;20054;-57
2023/09/05 13:34:08;;;;;;;3.40;2.15;;;;;;;;;;5049955;28;20053;-58
2023/09/05 13:36:35;;;;;;;2.38;1.98;;;;;;;;;;5044690;28;20053;-57
2023/09/05 13:39:02;;;;;;;2.25;1.50;;;;;;;;;;5039010;28;20419;-57
2023/09/05 13:41:29;;;;;;;4.18;1.80;;;;;;;;;;5042906;28;20116;-57
2023/09/05 13:43:55;;;;;;;2.05;1.80;;;;;;;;;;5044696;28;20073;-58
2023/09/05 13:46:22;;;;;;;2.20;1.70;;;;;;;;;;5045639;28;20053;-58
2023/09/05 13:48:48;;;;;;;2.45;1.50;;;;;;;;;;5044045;28;20057;-59
2023/09/05 13:51:21;;;;;;;1.95;1.75;;;;;;;;;;5049531;28;20562;-58
2023/09/05 13:53:48;;;;;;;5.25;1.52;;;;;;;;;;5050222;28;20898;-60
2023/09/05 13:56:15;;;;;;;6.68;1.60;;;;;;;;;;5048658;28;20050;-57
2023/09/05 13:58:42;;;;;;;5.30;1.88;;;;;;;;;;5045822;28;20787;-57
2023/09/05 14:01:08;;;;;;;3.05;1.92;;;;;;;;;;5043646;28;20139;-56
2023/09/05 14:03:35;;;;;;;3.88;1.50;;;;;;;;;;5055396;28;20593;-56
2023/09/05 14:06:01;;;;;;;2.20;1.60;;;;;;;;;;5054668;28;20057;-56
2023/09/05 14:08:28;;;;;;;3.63;1.60;;;;;;;;;;5043431;28;20057;-57
2023/09/05 14:10:55;;;;;;;3.45;1.80;;;;;;;;;;5044976;28;20060;-56
2023/09/05 14:13:21;;;;;;;1.50;1.40;;;;;;;;;;5043558;28;20068;-53
2023/09/05 14:15:48;;;;;;;4.15;1.70;;;;;;;;;;5043987;28;20056;-55
2023/09/05 14:18:15;;;;;;;1.92;1.42;;;;;;;;;;5041325;28;20540;-56
2023/09/05 14:20:42;;;;;;;2.90;1.58;;;;;;;;;;5042562;28;20057;-57
2023/09/05 14:23:08;;;;;;;1.45;1.35;;;;;;;;;;5043867;28;20219;-55
2023/09/05 14:25:35;;;;;;;2.35;1.40;;;;;;;;;;5043332;28;20049;-56
2023/09/05 14:28:02;;;;;;;2.20;1.52;;;;;;;;;;5042373;28;20084;-55
2023/09/05 14:30:29;;;;;;;4.95;1.70;;;;;;;;;;5044283;28;20049;-57
2023/09/05 14:32:56;;;;;;;3.08;1.52;;;;;;;;;;5053116;28;20140;-56
2023/09/05 14:35:23;;;;;;;2.22;1.52;;;;;;;;;;5047246;28;20053;-56
2023/09/05 14:37:50;;;;;;;2.42;1.50;;;;;;;;;;5042426;28;20049;-57
2023/09/05 14:40:16;;;;;;;3.53;1.65;;;;;;;;;;5043382;28;21187;-56
2023/09/05 14:42:42;;;;;;;1.85;1.60;;;;;;;;;;5043531;28;20516;-56
2023/09/05 14:45:09;;;;;;;2.28;1.60;;;;;;;;;;5048234;28;20536;-56
2023/09/05 14:47:36;;;;;;;3.60;1.73;;;;;;;;;;5044659;28;20645;-56